Dry Ridge, Kentucky
Current Conditions -  °F | °C
As of 1:52 PM on Saturday 25 Oct 2014 (Local Time) from KCVG Reporting Station
Scattered Clouds Scattered Clouds  
Wind Chill: 69°   Ceiling: Unl
Heat Index: 69°   Visibility: 10mi
Dew Point: 57°   Wind: 8mph
Humidity: 65%   Direction: 240°WSW
Pressure: 29.95"   Gusts: NA
Location:  38.68°N, 84.59°W
Report Text: KCVG 251752Z 24007KT 10SM FEW025 SCT250 21/14 A2995 RMK AO2 SLP136 T02060139 10206 20100 58017
Loading
Personal Weather Stations






























Interactive Weather Map
Tropical Storm Tracking
New forecast layout! Learn more

10-Day Weather Forecast

Advertisements
Track Severe Weather on mobile